sensor_id;sensor_type;location;lat;lon;timestamp;P1;durP1;ratioP1;P2;durP2;ratioP2
13461;SDS011;6803;45.264;5.468;2022-07-29T00:01:39;5.10;;;1.70;;
13461;SDS011;6803;45.264;5.468;2022-07-29T00:04:09;2.33;;;1.53;;
13461;SDS011;6803;45.264;5.468;2022-07-29T00:06:41;2.33;;;1.67;;
13461;SDS011;6803;45.264;5.468;2022-07-29T00:09:12;2.90;;;1.60;;
13461;SDS011;6803;45.264;5.468;2022-07-29T00:11:42;4.07;;;1.33;;
13461;SDS011;6803;45.264;5.468;2022-07-29T00:14:13;3.23;;;1.60;;
13461;SDS011;6803;45.264;5.468;2022-07-29T00:16:44;3.20;;;1.80;;
13461;SDS011;6803;45.264;5.468;2022-07-29T00:19:15;3.50;;;1.60;;
13461;SDS011;6803;45.264;5.468;2022-07-29T00:21:47;4.87;;;1.57;;
13461;SDS011;6803;45.264;5.468;2022-07-29T00:24:18;2.83;;;1.40;;
13461;SDS011;6803;45.264;5.468;2022-07-29T00:26:49;2.17;;;1.40;;
13461;SDS011;6803;45.264;5.468;2022-07-29T00:29:19;3.70;;;1.40;;
13461;SDS011;6803;45.264;5.468;2022-07-29T00:31:52;3.63;;;1.50;;
13461;SDS011;6803;45.264;5.468;2022-07-29T00:34:23;2.33;;;1.47;;
13461;SDS011;6803;45.264;5.468;2022-07-29T00:37:11;2.50;;;1.60;;
13461;SDS011;6803;45.264;5.468;2022-07-29T00:39:42;2.50;;;1.50;;
13461;SDS011;6803;45.264;5.468;2022-07-29T00:42:12;4.60;;;1.80;;
13461;SDS011;6803;45.264;5.468;2022-07-29T00:44:44;4.00;;;1.57;;
13461;SDS011;6803;45.264;5.468;2022-07-29T00:47:15;4.03;;;1.57;;
13461;SDS011;6803;45.264;5.468;2022-07-29T00:49:46;3.17;;;1.80;;
13461;SDS011;6803;45.264;5.468;2022-07-29T00:52:17;4.50;;;2.53;;
13461;SDS011;6803;45.264;5.468;2022-07-29T00:54:47;2.00;;;1.50;;
13461;SDS011;6803;45.264;5.468;2022-07-29T00:57:18;3.30;;;1.67;;
13461;SDS011;6803;45.264;5.468;2022-07-29T00:59:49;2.20;;;1.53;;
13461;SDS011;6803;45.264;5.468;2022-07-29T01:02:20;3.10;;;1.70;;
13461;SDS011;6803;45.264;5.468;2022-07-29T01:04:51;3.77;;;1.60;;
13461;SDS011;6803;45.264;5.468;2022-07-29T01:07:24;2.53;;;1.70;;
13461;SDS011;6803;45.264;5.468;2022-07-29T01:09:57;2.40;;;1.50;;
13461;SDS011;6803;45.264;5.468;2022-07-29T01:12:29;2.87;;;1.53;;
13461;SDS011;6803;45.264;5.468;2022-07-29T01:15:02;2.87;;;1.37;;
13461;SDS011;6803;45.264;5.468;2022-07-29T01:17:38;2.93;;;1.40;;
13461;SDS011;6803;45.264;5.468;2022-07-29T01:20:13;4.60;;;1.43;;
13461;SDS011;6803;45.264;5.468;2022-07-29T01:23:03;2.10;;;1.50;;
13461;SDS011;6803;45.264;5.468;2022-07-29T01:26:00;4.10;;;1.80;;
13461;SDS011;6803;45.264;5.468;2022-07-29T01:28:45;3.43;;;1.50;;
13461;SDS011;6803;45.264;5.468;2022-07-29T01:31:28;1.70;;;1.50;;
13461;SDS011;6803;45.264;5.468;2022-07-29T01:36:57;2.23;;;1.50;;
13461;SDS011;6803;45.264;5.468;2022-07-29T01:39:31;2.47;;;1.47;;
13461;SDS011;6803;45.264;5.468;2022-07-29T01:42:07;3.57;;;1.70;;
13461;SDS011;6803;45.264;5.468;2022-07-29T01:44:45;2.37;;;1.57;;
13461;SDS011;6803;45.264;5.468;2022-07-29T01:47:17;1.80;;;1.50;;
13461;SDS011;6803;45.264;5.468;2022-07-29T01:49:51;1.73;;;1.40;;
13461;SDS011;6803;45.264;5.468;2022-07-29T01:52:26;2.60;;;1.50;;
13461;SDS011;6803;45.264;5.468;2022-07-29T01:55:01;2.27;;;1.67;;
13461;SDS011;6803;45.264;5.468;2022-07-29T01:57:33;1.70;;;1.60;;
13461;SDS011;6803;45.264;5.468;2022-07-29T02:00:08;3.50;;;1.60;;
13461;SDS011;6803;45.264;5.468;2022-07-29T02:02:42;4.63;;;1.60;;
13461;SDS011;6803;45.264;5.468;2022-07-29T02:05:15;1.50;;;1.40;;
13461;SDS011;6803;45.264;5.468;2022-07-29T02:07:49;4.30;;;1.83;;
13461;SDS011;6803;45.264;5.468;2022-07-29T02:10:22;2.93;;;1.53;;
13461;SDS011;6803;45.264;5.468;2022-07-29T02:12:55;2.27;;;1.43;;
13461;SDS011;6803;45.264;5.468;2022-07-29T02:15:29;3.00;;;1.80;;
13461;SDS011;6803;45.264;5.468;2022-07-29T02:18:02;2.90;;;1.57;;
13461;SDS011;6803;45.264;5.468;2022-07-29T02:20:35;5.07;;;1.70;;
13461;SDS011;6803;45.264;5.468;2022-07-29T02:23:08;4.83;;;1.60;;
13461;SDS011;6803;45.264;5.468;2022-07-29T02:25:41;3.73;;;1.77;;
13461;SDS011;6803;45.264;5.468;2022-07-29T02:28:13;1.67;;;1.57;;
13461;SDS011;6803;45.264;5.468;2022-07-29T02:30:45;4.30;;;1.80;;
13461;SDS011;6803;45.264;5.468;2022-07-29T02:33:17;4.47;;;1.73;;
13461;SDS011;6803;45.264;5.468;2022-07-29T02:35:50;3.20;;;1.80;;
13461;SDS011;6803;45.264;5.468;2022-07-29T02:38:22;1.73;;;1.33;;
13461;SDS011;6803;45.264;5.468;2022-07-29T02:41:13;2.07;;;1.30;;
13461;SDS011;6803;45.264;5.468;2022-07-29T02:43:47;1.60;;;1.50;;
13461;SDS011;6803;45.264;5.468;2022-07-29T02:46:21;2.20;;;1.40;;
13461;SDS011;6803;45.264;5.468;2022-07-29T02:48:58;3.63;;;1.53;;
13461;SDS011;6803;45.264;5.468;2022-07-29T02:51:33;4.07;;;1.70;;
13461;SDS011;6803;45.264;5.468;2022-07-29T02:54:09;2.00;;;1.80;;
13461;SDS011;6803;45.264;5.468;2022-07-29T02:56:42;3.17;;;1.37;;
13461;SDS011;6803;45.264;5.468;2022-07-29T02:59:15;2.13;;;1.53;;
13461;SDS011;6803;45.264;5.468;2022-07-29T03:01:49;3.33;;;1.93;;
13461;SDS011;6803;45.264;5.468;2022-07-29T03:04:21;3.33;;;1.80;;
13461;SDS011;6803;45.264;5.468;2022-07-29T03:06:56;2.07;;;1.70;;
13461;SDS011;6803;45.264;5.468;2022-07-29T03:09:28;4.17;;;1.63;;
13461;SDS011;6803;45.264;5.468;2022-07-29T03:12:00;2.20;;;1.60;;
13461;SDS011;6803;45.264;5.468;2022-07-29T03:14:32;3.47;;;1.50;;
13461;SDS011;6803;45.264;5.468;2022-07-29T03:17:04;2.30;;;1.70;;
13461;SDS011;6803;45.264;5.468;2022-07-29T03:19:35;3.83;;;1.93;;
13461;SDS011;6803;45.264;5.468;2022-07-29T03:22:06;2.27;;;1.70;;
13461;SDS011;6803;45.264;5.468;2022-07-29T03:24:38;2.40;;;1.60;;
13461;SDS011;6803;45.264;5.468;2022-07-29T03:27:09;2.23;;;1.63;;
13461;SDS011;6803;45.264;5.468;2022-07-29T03:29:39;3.87;;;2.07;;
13461;SDS011;6803;45.264;5.468;2022-07-29T03:32:12;2.00;;;1.67;;
13461;SDS011;6803;45.264;5.468;2022-07-29T03:34:44;3.50;;;1.90;;
13461;SDS011;6803;45.264;5.468;2022-07-29T03:37:15;3.83;;;1.80;;
13461;SDS011;6803;45.264;5.468;2022-07-29T03:39:45;2.50;;;1.73;;
13461;SDS011;6803;45.264;5.468;2022-07-29T03:42:18;2.77;;;1.90;;
13461;SDS011;6803;45.264;5.468;2022-07-29T03:44:51;1.43;;;1.30;;
13461;SDS011;6803;45.264;5.468;2022-07-29T03:47:25;1.87;;;1.50;;
13461;SDS011;6803;45.264;5.468;2022-07-29T03:49:59;2.87;;;1.70;;
13461;SDS011;6803;45.264;5.468;2022-07-29T03:52:33;2.43;;;1.70;;
13461;SDS011;6803;45.264;5.468;2022-07-29T03:55:07;3.03;;;1.60;;
13461;SDS011;6803;45.264;5.468;2022-07-29T03:57:38;4.40;;;1.50;;
13461;SDS011;6803;45.264;5.468;2022-07-29T04:00:11;1.70;;;1.60;;
13461;SDS011;6803;45.264;5.468;2022-07-29T04:02:43;2.83;;;1.90;;
13461;SDS011;6803;45.264;5.468;2022-07-29T04:05:17;2.13;;;1.50;;
13461;SDS011;6803;45.264;5.468;2022-07-29T04:07:48;1.47;;;1.37;;
13461;SDS011;6803;45.264;5.468;2022-07-29T04:10:19;3.47;;;1.50;;
13461;SDS011;6803;45.264;5.468;2022-07-29T04:12:52;2.57;;;1.70;;
13461;SDS011;6803;45.264;5.468;2022-07-29T04:15:23;4.40;;;1.70;;
13461;SDS011;6803;45.264;5.468;2022-07-29T04:17:56;1.73;;;1.30;;
13461;SDS011;6803;45.264;5.468;2022-07-29T04:20:27;2.23;;;1.50;;
13461;SDS011;6803;45.264;5.468;2022-07-29T04:22:58;1.40;;;1.30;;
13461;SDS011;6803;45.264;5.468;2022-07-29T04:25:29;2.60;;;1.67;;
13461;SDS011;6803;45.264;5.468;2022-07-29T04:27:59;2.90;;;1.80;;
13461;SDS011;6803;45.264;5.468;2022-07-29T04:30:31;2.60;;;1.50;;
13461;SDS011;6803;45.264;5.468;2022-07-29T04:33:03;3.43;;;2.00;;
13461;SDS011;6803;45.264;5.468;2022-07-29T04:35:36;2.13;;;1.93;;
13461;SDS011;6803;45.264;5.468;2022-07-29T04:38:09;3.93;;;1.70;;
13461;SDS011;6803;45.264;5.468;2022-07-29T04:40:41;3.87;;;1.67;;
13461;SDS011;6803;45.264;5.468;2022-07-29T04:43:13;2.57;;;1.73;;
13461;SDS011;6803;45.264;5.468;2022-07-29T04:45:46;3.03;;;1.57;;
13461;SDS011;6803;45.264;5.468;2022-07-29T04:48:17;3.00;;;1.20;;
13461;SDS011;6803;45.264;5.468;2022-07-29T04:50:49;3.03;;;1.83;;
13461;SDS011;6803;45.264;5.468;2022-07-29T04:53:20;5.23;;;1.80;;
13461;SDS011;6803;45.264;5.468;2022-07-29T04:55:51;2.77;;;1.67;;
13461;SDS011;6803;45.264;5.468;2022-07-29T04:58:21;2.63;;;1.87;;
13461;SDS011;6803;45.264;5.468;2022-07-29T05:00:52;4.80;;;1.90;;
13461;SDS011;6803;45.264;5.468;2022-07-29T05:03:23;5.73;;;2.20;;
13461;SDS011;6803;45.264;5.468;2022-07-29T05:05:53;5.50;;;2.17;;
13461;SDS011;6803;45.264;5.468;2022-07-29T05:08:24;3.83;;;1.60;;
13461;SDS011;6803;45.264;5.468;2022-07-29T05:10:55;6.50;;;1.70;;
13461;SDS011;6803;45.264;5.468;2022-07-29T05:13:27;2.80;;;1.70;;
13461;SDS011;6803;45.264;5.468;2022-07-29T05:15:59;5.93;;;1.80;;
13461;SDS011;6803;45.264;5.468;2022-07-29T05:18:30;5.43;;;1.97;;
13461;SDS011;6803;45.264;5.468;2022-07-29T05:21:01;4.70;;;1.60;;
13461;SDS011;6803;45.264;5.468;2022-07-29T05:23:31;3.13;;;1.40;;
13461;SDS011;6803;45.264;5.468;2022-07-29T05:26:02;4.07;;;1.97;;
13461;SDS011;6803;45.264;5.468;2022-07-29T05:28:33;3.10;;;1.70;;
13461;SDS011;6803;45.264;5.468;2022-07-29T05:31:05;2.87;;;1.67;;
13461;SDS011;6803;45.264;5.468;2022-07-29T05:33:36;5.00;;;1.70;;
13461;SDS011;6803;45.264;5.468;2022-07-29T05:36:07;2.17;;;1.80;;
13461;SDS011;6803;45.264;5.468;2022-07-29T05:38:37;5.33;;;1.70;;
13461;SDS011;6803;45.264;5.468;2022-07-29T05:41:08;1.80;;;1.70;;
13461;SDS011;6803;45.264;5.468;2022-07-29T05:43:39;3.40;;;1.97;;
13461;SDS011;6803;45.264;5.468;2022-07-29T05:46:10;3.60;;;2.10;;
13461;SDS011;6803;45.264;5.468;2022-07-29T05:48:41;1.93;;;1.73;;
13461;SDS011;6803;45.264;5.468;2022-07-29T05:51:12;2.17;;;1.70;;
13461;SDS011;6803;45.264;5.468;2022-07-29T05:53:43;1.70;;;1.60;;
13461;SDS011;6803;45.264;5.468;2022-07-29T05:56:14;4.17;;;1.87;;
13461;SDS011;6803;45.264;5.468;2022-07-29T05:58:44;2.13;;;1.70;;
13461;SDS011;6803;45.264;5.468;2022-07-29T06:01:15;2.40;;;1.83;;
13461;SDS011;6803;45.264;5.468;2022-07-29T06:03:45;3.40;;;1.93;;
13461;SDS011;6803;45.264;5.468;2022-07-29T06:06:16;2.87;;;1.87;;
13461;SDS011;6803;45.264;5.468;2022-07-29T06:08:47;2.63;;;1.90;;
13461;SDS011;6803;45.264;5.468;2022-07-29T06:11:17;3.93;;;1.97;;
13461;SDS011;6803;45.264;5.468;2022-07-29T06:13:48;2.17;;;1.70;;
13461;SDS011;6803;45.264;5.468;2022-07-29T06:16:19;2.23;;;1.73;;
13461;SDS011;6803;45.264;5.468;2022-07-29T06:18:51;3.93;;;1.67;;
13461;SDS011;6803;45.264;5.468;2022-07-29T06:21:22;3.50;;;1.60;;
13461;SDS011;6803;45.264;5.468;2022-07-29T06:23:53;3.70;;;1.80;;
13461;SDS011;6803;45.264;5.468;2022-07-29T06:26:23;2.00;;;1.57;;
13461;SDS011;6803;45.264;5.468;2022-07-29T06:28:56;2.60;;;1.57;;
13461;SDS011;6803;45.264;5.468;2022-07-29T06:31:26;2.17;;;1.50;;
13461;SDS011;6803;45.264;5.468;2022-07-29T06:33:57;3.40;;;1.87;;
13461;SDS011;6803;45.264;5.468;2022-07-29T06:36:28;2.17;;;1.77;;
13461;SDS011;6803;45.264;5.468;2022-07-29T06:38:58;2.33;;;1.57;;
13461;SDS011;6803;45.264;5.468;2022-07-29T06:41:30;6.77;;;1.80;;
13461;SDS011;6803;45.264;5.468;2022-07-29T06:44:02;2.00;;;1.50;;
13461;SDS011;6803;45.264;5.468;2022-07-29T06:46:33;3.30;;;1.30;;
13461;SDS011;6803;45.264;5.468;2022-07-29T06:49:04;3.60;;;1.63;;
13461;SDS011;6803;45.264;5.468;2022-07-29T06:51:35;5.30;;;1.73;;
13461;SDS011;6803;45.264;5.468;2022-07-29T06:54:05;1.83;;;1.50;;
13461;SDS011;6803;45.264;5.468;2022-07-29T06:56:36;4.70;;;1.90;;
13461;SDS011;6803;45.264;5.468;2022-07-29T06:59:09;2.93;;;1.80;;
13461;SDS011;6803;45.264;5.468;2022-07-29T07:01:41;4.90;;;1.50;;
13461;SDS011;6803;45.264;5.468;2022-07-29T07:04:12;3.13;;;1.60;;
13461;SDS011;6803;45.264;5.468;2022-07-29T07:06:43;2.03;;;1.40;;
13461;SDS011;6803;45.264;5.468;2022-07-29T07:09:14;2.77;;;1.70;;
13461;SDS011;6803;45.264;5.468;2022-07-29T07:11:45;3.17;;;1.57;;
13461;SDS011;6803;45.264;5.468;2022-07-29T07:14:16;2.90;;;1.53;;
13461;SDS011;6803;45.264;5.468;2022-07-29T07:16:48;5.23;;;1.60;;
13461;SDS011;6803;45.264;5.468;2022-07-29T07:19:20;6.07;;;1.43;;
13461;SDS011;6803;45.264;5.468;2022-07-29T07:21:51;3.97;;;1.90;;
13461;SDS011;6803;45.264;5.468;2022-07-29T07:24:22;7.63;;;2.63;;
13461;SDS011;6803;45.264;5.468;2022-07-29T07:26:53;2.10;;;1.67;;
13461;SDS011;6803;45.264;5.468;2022-07-29T07:29:24;3.87;;;1.60;;
13461;SDS011;6803;45.264;5.468;2022-07-29T07:31:54;6.67;;;1.50;;
13461;SDS011;6803;45.264;5.468;2022-07-29T07:34:27;3.03;;;1.40;;
13461;SDS011;6803;45.264;5.468;2022-07-29T07:36:58;5.07;;;1.80;;
13461;SDS011;6803;45.264;5.468;2022-07-29T07:39:29;6.67;;;1.87;;
13461;SDS011;6803;45.264;5.468;2022-07-29T07:42:00;4.23;;;1.60;;
13461;SDS011;6803;45.264;5.468;2022-07-29T07:44:30;4.13;;;1.50;;
13461;SDS011;6803;45.264;5.468;2022-07-29T07:47:03;5.83;;;1.70;;
13461;SDS011;6803;45.264;5.468;2022-07-29T07:49:35;6.10;;;2.20;;
13461;SDS011;6803;45.264;5.468;2022-07-29T07:52:08;5.73;;;1.93;;
13461;SDS011;6803;45.264;5.468;2022-07-29T07:54:39;5.37;;;1.60;;
13461;SDS011;6803;45.264;5.468;2022-07-29T07:57:10;7.60;;;1.80;;
13461;SDS011;6803;45.264;5.468;2022-07-29T07:59:41;4.73;;;1.83;;
13461;SDS011;6803;45.264;5.468;2022-07-29T08:02:12;6.50;;;2.13;;
13461;SDS011;6803;45.264;5.468;2022-07-29T08:04:43;7.10;;;1.93;;
13461;SDS011;6803;45.264;5.468;2022-07-29T08:07:13;5.87;;;1.80;;
13461;SDS011;6803;45.264;5.468;2022-07-29T08:09:44;4.53;;;1.33;;
13461;SDS011;6803;45.264;5.468;2022-07-29T08:12:14;3.40;;;1.50;;
13461;SDS011;6803;45.264;5.468;2022-07-29T08:14:45;4.77;;;1.73;;
13461;SDS011;6803;45.264;5.468;2022-07-29T08:17:16;7.37;;;1.77;;
13461;SDS011;6803;45.264;5.468;2022-07-29T08:19:46;8.17;;;1.77;;
13461;SDS011;6803;45.264;5.468;2022-07-29T08:22:17;6.97;;;2.20;;
13461;SDS011;6803;45.264;5.468;2022-07-29T08:24:48;2.93;;;1.67;;
13461;SDS011;6803;45.264;5.468;2022-07-29T08:27:23;8.20;;;2.17;;
13461;SDS011;6803;45.264;5.468;2022-07-29T08:29:58;4.63;;;1.90;;
13461;SDS011;6803;45.264;5.468;2022-07-29T08:32:28;4.70;;;2.30;;
13461;SDS011;6803;45.264;5.468;2022-07-29T08:35:01;3.30;;;2.00;;
13461;SDS011;6803;45.264;5.468;2022-07-29T08:37:32;9.07;;;2.40;;
13461;SDS011;6803;45.264;5.468;2022-07-29T08:40:03;3.53;;;2.20;;
13461;SDS011;6803;45.264;5.468;2022-07-29T08:42:35;6.03;;;2.50;;
13461;SDS011;6803;45.264;5.468;2022-07-29T08:45:07;6.90;;;2.33;;
13461;SDS011;6803;45.264;5.468;2022-07-29T08:47:39;2.97;;;2.10;;
13461;SDS011;6803;45.264;5.468;2022-07-29T08:50:10;3.83;;;1.90;;
13461;SDS011;6803;45.264;5.468;2022-07-29T08:52:41;3.20;;;1.90;;
13461;SDS011;6803;45.264;5.468;2022-07-29T08:55:12;6.47;;;2.13;;
13461;SDS011;6803;45.264;5.468;2022-07-29T08:57:46;8.47;;;2.00;;
13461;SDS011;6803;45.264;5.468;2022-07-29T09:00:19;10.97;;;2.30;;
13461;SDS011;6803;45.264;5.468;2022-07-29T09:02:54;4.60;;;2.10;;
13461;SDS011;6803;45.264;5.468;2022-07-29T09:05:26;5.37;;;2.67;;
13461;SDS011;6803;45.264;5.468;2022-07-29T09:07:57;5.63;;;2.27;;
13461;SDS011;6803;45.264;5.468;2022-07-29T09:10:28;7.43;;;2.43;;
13461;SDS011;6803;45.264;5.468;2022-07-29T09:12:59;6.10;;;2.40;;
13461;SDS011;6803;45.264;5.468;2022-07-29T09:15:30;3.20;;;2.37;;
13461;SDS011;6803;45.264;5.468;2022-07-29T09:18:00;7.57;;;2.73;;
13461;SDS011;6803;45.264;5.468;2022-07-29T09:20:31;4.13;;;2.33;;
13461;SDS011;6803;45.264;5.468;2022-07-29T09:23:21;4.17;;;3.13;;
13461;SDS011;6803;45.264;5.468;2022-07-29T09:25:52;5.27;;;3.10;;
13461;SDS011;6803;45.264;5.468;2022-07-29T09:28:23;6.33;;;2.90;;
13461;SDS011;6803;45.264;5.468;2022-07-29T09:30:54;8.23;;;3.17;;
13461;SDS011;6803;45.264;5.468;2022-07-29T09:33:30;7.80;;;3.50;;
13461;SDS011;6803;45.264;5.468;2022-07-29T09:36:03;9.27;;;3.87;;
13461;SDS011;6803;45.264;5.468;2022-07-29T09:38:35;6.73;;;3.93;;
13461;SDS011;6803;45.264;5.468;2022-07-29T09:41:06;8.60;;;4.17;;
13461;SDS011;6803;45.264;5.468;2022-07-29T09:43:38;8.37;;;4.30;;
13461;SDS011;6803;45.264;5.468;2022-07-29T09:46:10;5.97;;;3.90;;
13461;SDS011;6803;45.264;5.468;2022-07-29T09:48:42;7.30;;;4.00;;
13461;SDS011;6803;45.264;5.468;2022-07-29T09:51:22;9.00;;;4.23;;
13461;SDS011;6803;45.264;5.468;2022-07-29T09:53:54;7.67;;;4.43;;
13461;SDS011;6803;45.264;5.468;2022-07-29T09:56:38;11.97;;;4.30;;
13461;SDS011;6803;45.264;5.468;2022-07-29T09:59:09;4.87;;;3.63;;
13461;SDS011;6803;45.264;5.468;2022-07-29T10:01:40;4.47;;;3.97;;
13461;SDS011;6803;45.264;5.468;2022-07-29T10:04:11;9.87;;;3.80;;
13461;SDS011;6803;45.264;5.468;2022-07-29T10:06:55;7.70;;;4.70;;
13461;SDS011;6803;45.264;5.468;2022-07-29T10:09:30;6.17;;;3.90;;
13461;SDS011;6803;45.264;5.468;2022-07-29T10:12:08;8.07;;;4.03;;
13461;SDS011;6803;45.264;5.468;2022-07-29T10:14:42;7.07;;;4.77;;
13461;SDS011;6803;45.264;5.468;2022-07-29T10:17:13;6.47;;;4.73;;
13461;SDS011;6803;45.264;5.468;2022-07-29T10:19:44;7.67;;;4.47;;
13461;SDS011;6803;45.264;5.468;2022-07-29T10:22:16;6.77;;;4.73;;
13461;SDS011;6803;45.264;5.468;2022-07-29T10:24:49;6.50;;;4.97;;
13461;SDS011;6803;45.264;5.468;2022-07-29T10:27:21;6.20;;;4.80;;
13461;SDS011;6803;45.264;5.468;2022-07-29T10:29:51;5.40;;;4.87;;
13461;SDS011;6803;45.264;5.468;2022-07-29T10:32:29;9.37;;;5.40;;
13461;SDS011;6803;45.264;5.468;2022-07-29T10:35:19;5.20;;;4.70;;
13461;SDS011;6803;45.264;5.468;2022-07-29T10:38:10;6.50;;;5.20;;
13461;SDS011;6803;45.264;5.468;2022-07-29T10:41:09;7.17;;;5.10;;
13461;SDS011;6803;45.264;5.468;2022-07-29T10:43:59;8.47;;;5.30;;
13461;SDS011;6803;45.264;5.468;2022-07-29T10:46:35;8.90;;;5.50;;
13461;SDS011;6803;45.264;5.468;2022-07-29T10:49:08;9.03;;;5.60;;
13461;SDS011;6803;45.264;5.468;2022-07-29T10:51:53;5.93;;;4.80;;
13461;SDS011;6803;45.264;5.468;2022-07-29T10:54:40;6.40;;;5.00;;
13461;SDS011;6803;45.264;5.468;2022-07-29T10:57:17;5.40;;;4.00;;
13461;SDS011;6803;45.264;5.468;2022-07-29T11:02:58;5.77;;;4.83;;
13461;SDS011;6803;45.264;5.468;2022-07-29T11:05:30;6.10;;;5.50;;
13461;SDS011;6803;45.264;5.468;2022-07-29T11:08:22;6.57;;;4.90;;
13461;SDS011;6803;45.264;5.468;2022-07-29T11:14:09;7.00;;;5.20;;
13461;SDS011;6803;45.264;5.468;2022-07-29T11:16:59;7.63;;;4.90;;
13461;SDS011;6803;45.264;5.468;2022-07-29T11:19:33;8.90;;;5.20;;
13461;SDS011;6803;45.264;5.468;2022-07-29T11:22:08;6.13;;;5.53;;
13461;SDS011;6803;45.264;5.468;2022-07-29T11:24:41;10.37;;;5.40;;
13461;SDS011;6803;45.264;5.468;2022-07-29T11:27:15;9.30;;;5.63;;
13461;SDS011;6803;45.264;5.468;2022-07-29T11:29:49;7.87;;;5.50;;
13461;SDS011;6803;45.264;5.468;2022-07-29T11:32:22;6.73;;;5.00;;
13461;SDS011;6803;45.264;5.468;2022-07-29T11:43:54;3.90;;;3.60;;
13461;SDS011;6803;45.264;5.468;2022-07-29T11:46:45;6.43;;;3.90;;
13461;SDS011;6803;45.264;5.468;2022-07-29T11:49:19;5.83;;;3.60;;
13461;SDS011;6803;45.264;5.468;2022-07-29T11:51:53;5.33;;;3.43;;
13461;SDS011;6803;45.264;5.468;2022-07-29T11:54:26;4.57;;;3.43;;
13461;SDS011;6803;45.264;5.468;2022-07-29T11:56:58;4.60;;;3.13;;
13461;SDS011;6803;45.264;5.468;2022-07-29T11:59:30;3.33;;;2.80;;
13461;SDS011;6803;45.264;5.468;2022-07-29T12:02:03;4.13;;;3.60;;
13461;SDS011;6803;45.264;5.468;2022-07-29T12:04:46;4.57;;;3.10;;
13461;SDS011;6803;45.264;5.468;2022-07-29T12:07:18;4.37;;;2.90;;
13461;SDS011;6803;45.264;5.468;2022-07-29T12:09:57;6.33;;;3.37;;
13461;SDS011;6803;45.264;5.468;2022-07-29T12:12:29;3.37;;;2.80;;
13461;SDS011;6803;45.264;5.468;2022-07-29T12:15:11;3.37;;;3.03;;
13461;SDS011;6803;45.264;5.468;2022-07-29T12:17:48;3.53;;;3.10;;
13461;SDS011;6803;45.264;5.468;2022-07-29T12:20:23;7.70;;;3.20;;
13461;SDS011;6803;45.264;5.468;2022-07-29T12:22:56;6.30;;;3.23;;
13461;SDS011;6803;45.264;5.468;2022-07-29T12:25:27;6.57;;;3.77;;
13461;SDS011;6803;45.264;5.468;2022-07-29T12:28:01;5.60;;;3.80;;
13461;SDS011;6803;45.264;5.468;2022-07-29T12:30:37;7.17;;;3.70;;
13461;SDS011;6803;45.264;5.468;2022-07-29T12:33:16;6.13;;;3.53;;
13461;SDS011;6803;45.264;5.468;2022-07-29T12:35:50;4.73;;;3.53;;
13461;SDS011;6803;45.264;5.468;2022-07-29T12:38:24;5.27;;;4.00;;
13461;SDS011;6803;45.264;5.468;2022-07-29T12:40:56;4.73;;;3.20;;
13461;SDS011;6803;45.264;5.468;2022-07-29T12:43:27;5.27;;;4.13;;
13461;SDS011;6803;45.264;5.468;2022-07-29T12:45:57;5.50;;;4.27;;
13461;SDS011;6803;45.264;5.468;2022-07-29T12:48:34;6.42;;;3.80;;
13461;SDS011;6803;45.264;5.468;2022-07-29T12:51:07;7.45;;;3.55;;
13461;SDS011;6803;45.264;5.468;2022-07-29T12:53:39;6.67;;;4.00;;
13461;SDS011;6803;45.264;5.468;2022-07-29T12:56:15;6.42;;;3.42;;
13461;SDS011;6803;45.264;5.468;2022-07-29T12:58:48;4.03;;;3.40;;
13461;SDS011;6803;45.264;5.468;2022-07-29T13:01:19;5.37;;;3.27;;
13461;SDS011;6803;45.264;5.468;2022-07-29T13:03:51;10.95;;;4.05;;
13461;SDS011;6803;45.264;5.468;2022-07-29T13:06:39;4.53;;;3.40;;
13461;SDS011;6803;45.264;5.468;2022-07-29T13:09:13;5.85;;;3.58;;
13461;SDS011;6803;45.264;5.468;2022-07-29T13:11:45;7.80;;;3.47;;
13461;SDS011;6803;45.264;5.468;2022-07-29T13:14:30;5.53;;;2.58;;
13461;SDS011;6803;45.264;5.468;2022-07-29T13:17:04;4.30;;;2.70;;
13461;SDS011;6803;45.264;5.468;2022-07-29T13:19:37;3.62;;;2.52;;
13461;SDS011;6803;45.264;5.468;2022-07-29T13:22:10;2.83;;;2.37;;
13461;SDS011;6803;45.264;5.468;2022-07-29T13:24:49;5.08;;;2.47;;
13461;SDS011;6803;45.264;5.468;2022-07-29T13:27:22;2.90;;;2.20;;
13461;SDS011;6803;45.264;5.468;2022-07-29T13:29:54;4.92;;;2.45;;
13461;SDS011;6803;45.264;5.468;2022-07-29T13:32:27;4.78;;;2.70;;
13461;SDS011;6803;45.264;5.468;2022-07-29T13:34:59;2.33;;;1.90;;
13461;SDS011;6803;45.264;5.468;2022-07-29T13:37:32;3.87;;;2.30;;
13461;SDS011;6803;45.264;5.468;2022-07-29T13:40:07;3.35;;;2.37;;
13461;SDS011;6803;45.264;5.468;2022-07-29T13:42:40;6.25;;;2.47;;
13461;SDS011;6803;45.264;5.468;2022-07-29T13:45:13;3.42;;;2.25;;
13461;SDS011;6803;45.264;5.468;2022-07-29T13:50:34;3.92;;;2.35;;
13461;SDS011;6803;45.264;5.468;2022-07-29T13:53:05;3.02;;;2.35;;
13461;SDS011;6803;45.264;5.468;2022-07-29T13:55:38;3.10;;;2.47;;
13461;SDS011;6803;45.264;5.468;2022-07-29T13:58:08;5.12;;;2.50;;
13461;SDS011;6803;45.264;5.468;2022-07-29T14:00:39;3.33;;;1.92;;
13461;SDS011;6803;45.264;5.468;2022-07-29T14:03:09;3.17;;;2.12;;
13461;SDS011;6803;45.264;5.468;2022-07-29T14:05:40;2.12;;;1.85;;
13461;SDS011;6803;45.264;5.468;2022-07-29T14:08:11;3.00;;;2.70;;
13461;SDS011;6803;45.264;5.468;2022-07-29T14:10:41;3.75;;;2.65;;
13461;SDS011;6803;45.264;5.468;2022-07-29T14:13:13;3.12;;;2.52;;
13461;SDS011;6803;45.264;5.468;2022-07-29T14:15:45;5.15;;;2.70;;
13461;SDS011;6803;45.264;5.468;2022-07-29T14:18:16;3.55;;;2.17;;
13461;SDS011;6803;45.264;5.468;2022-07-29T14:20:47;6.05;;;2.58;;
13461;SDS011;6803;45.264;5.468;2022-07-29T14:23:19;3.92;;;2.27;;
13461;SDS011;6803;45.264;5.468;2022-07-29T14:25:49;5.60;;;2.50;;
13461;SDS011;6803;45.264;5.468;2022-07-29T14:28:20;3.33;;;2.10;;
13461;SDS011;6803;45.264;5.468;2022-07-29T14:30:51;2.08;;;1.82;;
13461;SDS011;6803;45.264;5.468;2022-07-29T14:33:21;3.77;;;1.90;;
13461;SDS011;6803;45.264;5.468;2022-07-29T14:35:52;2.62;;;1.80;;
13461;SDS011;6803;45.264;5.468;2022-07-29T14:38:25;1.82;;;1.62;;
13461;SDS011;6803;45.264;5.468;2022-07-29T14:40:55;3.70;;;1.60;;
13461;SDS011;6803;45.264;5.468;2022-07-29T14:43:26;1.70;;;1.60;;
13461;SDS011;6803;45.264;5.468;2022-07-29T14:45:56;1.72;;;1.50;;
13461;SDS011;6803;45.264;5.468;2022-07-29T14:48:29;2.85;;;1.65;;
13461;SDS011;6803;45.264;5.468;2022-07-29T14:50:59;1.50;;;1.40;;
13461;SDS011;6803;45.264;5.468;2022-07-29T14:53:32;4.45;;;1.60;;
13461;SDS011;6803;45.264;5.468;2022-07-29T14:56:03;1.47;;;1.37;;
13461;SDS011;6803;45.264;5.468;2022-07-29T14:58:36;1.72;;;1.60;;
13461;SDS011;6803;45.264;5.468;2022-07-29T15:01:08;2.67;;;1.47;;
13461;SDS011;6803;45.264;5.468;2022-07-29T15:03:39;1.07;;;1.07;;
13461;SDS011;6803;45.264;5.468;2022-07-29T15:06:10;2.85;;;1.57;;
13461;SDS011;6803;45.264;5.468;2022-07-29T15:08:40;2.00;;;1.52;;
13461;SDS011;6803;45.264;5.468;2022-07-29T15:11:11;1.60;;;1.50;;
13461;SDS011;6803;45.264;5.468;2022-07-29T15:13:42;1.67;;;1.30;;
13461;SDS011;6803;45.264;5.468;2022-07-29T15:16:12;5.20;;;1.60;;
13461;SDS011;6803;45.264;5.468;2022-07-29T15:18:44;2.15;;;1.40;;
13461;SDS011;6803;45.264;5.468;2022-07-29T15:21:14;1.80;;;1.25;;
13461;SDS011;6803;45.264;5.468;2022-07-29T15:23:45;3.20;;;1.27;;
13461;SDS011;6803;45.264;5.468;2022-07-29T15:26:16;3.42;;;1.30;;
13461;SDS011;6803;45.264;5.468;2022-07-29T15:28:46;2.87;;;1.32;;
13461;SDS011;6803;45.264;5.468;2022-07-29T15:31:17;2.27;;;1.50;;
13461;SDS011;6803;45.264;5.468;2022-07-29T15:33:48;1.35;;;1.22;;
13461;SDS011;6803;45.264;5.468;2022-07-29T15:36:20;2.00;;;1.30;;
13461;SDS011;6803;45.264;5.468;2022-07-29T15:38:53;1.55;;;1.45;;
13461;SDS011;6803;45.264;5.468;2022-07-29T15:41:24;2.15;;;1.30;;
13461;SDS011;6803;45.264;5.468;2022-07-29T15:43:55;2.75;;;1.35;;
13461;SDS011;6803;45.264;5.468;2022-07-29T15:46:26;2.77;;;1.37;;
13461;SDS011;6803;45.264;5.468;2022-07-29T15:49:14;2.27;;;1.62;;
13461;SDS011;6803;45.264;5.468;2022-07-29T15:51:44;1.47;;;1.12;;
13461;SDS011;6803;45.264;5.468;2022-07-29T15:54:15;1.30;;;1.20;;
13461;SDS011;6803;45.264;5.468;2022-07-29T15:56:46;1.40;;;1.30;;